Time;durP1;ratioP1;P1;durP2;ratioP2;P2;SDS_P1;SDS_P2;PMS_P1;PMS_P2;Temp;Humidity;BMP_temperature;BMP_pressure;BME280_temperature;BME280_humidity;BME280_pressure;Samples;Min_cycle;Max_cycle;Signal;HPM_P1;HPM_P2
2023/01/23 00:02:00;;;;;;;4.22;1.90;;;;;;;;;;5012386;28;20026;-31
2023/01/23 00:04:27;;;;;;;3.05;1.75;;;;;;;;;;5012487;28;20101;-31
2023/01/23 00:06:54;;;;;;;5.07;1.90;;;;;;;;;;5012390;28;20057;-31
2023/01/23 00:09:21;;;;;;;6.40;1.80;;;;;;;;;;5012559;28;20369;-31
2023/01/23 00:11:48;;;;;;;5.95;1.70;;;;;;;;;;5012371;28;20420;-31
2023/01/23 00:14:15;;;;;;;4.53;1.58;;;;;;;;;;5012303;28;20036;-31
2023/01/23 00:16:42;;;;;;;4.30;1.95;;;;;;;;;;5012401;28;20072;-31
2023/01/23 00:19:10;;;;;;;4.93;1.88;;;;;;;;;;5012310;28;20088;-31
2023/01/23 00:21:38;;;;;;;2.60;1.60;;;;;;;;;;5012399;28;20049;-31
2023/01/23 00:24:05;;;;;;;5.00;1.70;;;;;;;;;;5012190;28;20032;-31
2023/01/23 00:26:32;;;;;;;3.97;1.60;;;;;;;;;;5012305;28;20389;-31
2023/01/23 00:28:59;;;;;;;3.30;1.75;;;;;;;;;;5015715;28;20026;-31
2023/01/23 00:31:37;;;;;;;5.18;1.88;;;;;;;;;;5015864;28;20076;-31
2023/01/23 00:34:05;;;;;;;5.95;1.83;;;;;;;;;;5015490;28;20108;-31
2023/01/23 00:36:40;;;;;;;5.90;1.67;;;;;;;;;;4998163;28;20034;-31
2023/01/23 00:39:08;;;;;;;5.38;2.00;;;;;;;;;;5015612;28;20394;-32
2023/01/23 00:41:35;;;;;;;4.88;1.70;;;;;;;;;;5015705;28;20030;-31
2023/01/23 00:44:02;;;;;;;4.55;1.88;;;;;;;;;;5015685;28;20038;-31
2023/01/23 00:46:29;;;;;;;6.38;2.05;;;;;;;;;;5015562;28;20084;-31
2023/01/23 00:48:56;;;;;;;6.38;2.10;;;;;;;;;;5015391;28;20362;-31
2023/01/23 00:51:23;;;;;;;3.35;1.67;;;;;;;;;;5015536;28;20093;-31
2023/01/23 00:53:50;;;;;;;6.57;1.95;;;;;;;;;;5015491;28;20030;-31
2023/01/23 00:56:17;;;;;;;4.32;1.90;;;;;;;;;;5015427;28;20033;-32
2023/01/23 00:58:44;;;;;;;4.55;2.00;;;;;;;;;;5015359;28;20093;-31
2023/01/23 01:01:11;;;;;;;4.85;1.90;;;;;;;;;;5015295;28;20512;-31
2023/01/23 01:03:38;;;;;;;5.50;1.80;;;;;;;;;;5015213;28;20022;-31
2023/01/23 01:06:05;;;;;;;3.55;1.92;;;;;;;;;;5015195;28;20495;-31
2023/01/23 01:08:32;;;;;;;6.55;2.00;;;;;;;;;;5014943;28;20034;-31
2023/01/23 01:10:59;;;;;;;10.52;2.33;;;;;;;;;;5015070;28;20111;-31
2023/01/23 01:13:27;;;;;;;7.65;1.88;;;;;;;;;;5014888;28;20392;-31
2023/01/23 01:15:54;;;;;;;7.97;2.30;;;;;;;;;;5015081;28;20037;-31
2023/01/23 01:18:21;;;;;;;10.30;2.13;;;;;;;;;;5014975;28;20104;-31
2023/01/23 01:20:49;;;;;;;12.10;2.53;;;;;;;;;;5014880;28;20026;-31
2023/01/23 01:23:16;;;;;;;9.02;2.63;;;;;;;;;;5014852;28;20133;-31
2023/01/23 01:25:43;;;;;;;6.88;2.53;;;;;;;;;;5014733;28;20033;-31
2023/01/23 01:28:10;;;;;;;12.32;2.83;;;;;;;;;;5014775;28;20022;-31
2023/01/23 01:30:37;;;;;;;8.93;2.17;;;;;;;;;;5014670;28;20018;-31
2023/01/23 01:33:04;;;;;;;11.40;2.97;;;;;;;;;;5014658;28;20061;-31
2023/01/23 01:35:31;;;;;;;13.13;3.22;;;;;;;;;;5014520;28;20030;-31
2023/01/23 01:37:59;;;;;;;12.48;3.33;;;;;;;;;;5014483;28;20445;-31
2023/01/23 01:40:31;;;;;;;13.10;3.40;;;;;;;;;;5013725;28;20022;-31
2023/01/23 01:43:00;;;;;;;16.58;3.13;;;;;;;;;;5014397;28;20116;-31
2023/01/23 01:45:45;;;;;;;14.27;3.00;;;;;;;;;;5014129;28;20091;-31
2023/01/23 01:48:12;;;;;;;11.02;3.00;;;;;;;;;;5014309;28;20022;-31
2023/01/23 01:50:39;;;;;;;16.17;3.17;;;;;;;;;;5014422;28;20022;-31
2023/01/23 01:53:06;;;;;;;12.23;2.97;;;;;;;;;;5014236;28;20109;-31
2023/01/23 01:55:33;;;;;;;13.65;3.30;;;;;;;;;;5014171;28;20084;-31
2023/01/23 01:58:00;;;;;;;8.43;2.85;;;;;;;;;;5014095;28;20511;-31
2023/01/23 02:00:27;;;;;;;9.73;3.45;;;;;;;;;;5014138;28;20030;-31
2023/01/23 02:02:57;;;;;;;13.10;3.67;;;;;;;;;;5013990;28;20026;-31
2023/01/23 02:05:32;;;;;;;12.07;3.35;;;;;;;;;;5014237;28;20534;-31
2023/01/23 02:08:03;;;;;;;12.25;3.35;;;;;;;;;;5014037;28;20381;-31
2023/01/23 02:10:31;;;;;;;15.77;3.33;;;;;;;;;;5013905;28;20026;-31
2023/01/23 02:13:17;;;;;;;15.25;3.35;;;;;;;;;;5013868;28;20041;-31
2023/01/23 02:15:44;;;;;;;16.08;3.63;;;;;;;;;;5013862;28;20038;-31
2023/01/23 02:18:11;;;;;;;16.05;3.85;;;;;;;;;;5013804;28;20084;-31
2023/01/23 02:20:38;;;;;;;15.73;4.22;;;;;;;;;;5013813;28;20026;-31
2023/01/23 02:23:17;;;;;;;17.88;3.75;;;;;;;;;;5013704;28;20045;-31
2023/01/23 02:25:46;;;;;;;14.25;3.72;;;;;;;;;;5013735;28;20061;-31
2023/01/23 02:28:14;;;;;;;12.45;3.53;;;;;;;;;;5013814;28;20034;-31
2023/01/23 02:30:41;;;;;;;14.98;3.60;;;;;;;;;;5013554;28;20080;-31
2023/01/23 02:33:23;;;;;;;15.35;3.75;;;;;;;;;;5013447;28;20050;-31
2023/01/23 02:35:50;;;;;;;13.95;4.03;;;;;;;;;;5013634;28;20022;-31
2023/01/23 02:38:20;;;;;;;16.10;4.32;;;;;;;;;;5013462;28;20029;-31
2023/01/23 02:40:47;;;;;;;17.83;4.40;;;;;;;;;;5013481;28;20048;-31
2023/01/23 02:43:15;;;;;;;21.52;4.32;;;;;;;;;;5013313;28;20030;-31
2023/01/23 02:45:43;;;;;;;16.88;3.97;;;;;;;;;;5013323;28;20481;-31
2023/01/23 02:48:10;;;;;;;16.35;3.92;;;;;;;;;;5013498;28;20473;-31
2023/01/23 02:50:37;;;;;;;17.13;4.32;;;;;;;;;;5013283;28;20484;-31
2023/01/23 02:53:04;;;;;;;18.48;4.30;;;;;;;;;;5013278;28;20033;-31
2023/01/23 02:55:36;;;;;;;18.27;3.95;;;;;;;;;;5013166;28;20603;-31
2023/01/23 03:00:48;;;;;;;14.25;3.90;;;;;;;;;;5013255;28;19913;-31
2023/01/23 03:03:15;;;;;;;14.15;4.18;;;;;;;;;;5013152;28;20404;-31
2023/01/23 03:05:42;;;;;;;16.13;4.13;;;;;;;;;;5013020;28;20030;-31
2023/01/23 03:08:08;;;;;;;16.25;4.00;;;;;;;;;;5013076;28;20040;-31
2023/01/23 03:10:35;;;;;;;14.35;4.28;;;;;;;;;;5013087;28;20029;-31
2023/01/23 03:13:06;;;;;;;14.45;3.92;;;;;;;;;;5013057;28;20026;-31
2023/01/23 03:15:34;;;;;;;13.27;3.70;;;;;;;;;;5012875;28;20041;-31
2023/01/23 03:18:01;;;;;;;17.30;4.13;;;;;;;;;;5012820;28;20030;-31
2023/01/23 03:20:28;;;;;;;14.15;4.00;;;;;;;;;;5012901;28;20026;-31
2023/01/23 03:22:56;;;;;;;11.82;3.58;;;;;;;;;;5012925;28;20069;-31
2023/01/23 03:25:23;;;;;;;10.23;3.47;;;;;;;;;;5012766;28;20120;-31
2023/01/23 03:27:50;;;;;;;12.80;3.78;;;;;;;;;;5012779;28;20029;-31
2023/01/23 03:30:20;;;;;;;12.57;4.07;;;;;;;;;;5012830;28;20018;-31
2023/01/23 03:32:48;;;;;;;11.95;3.70;;;;;;;;;;5012463;28;20058;-31
2023/01/23 03:35:15;;;;;;;11.00;3.30;;;;;;;;;;5012845;28;20489;-31
2023/01/23 03:37:45;;;;;;;12.48;3.85;;;;;;;;;;5012621;28;20454;-31
2023/01/23 03:43:01;;;;;;;14.45;3.90;;;;;;;;;;5013042;28;20459;-31
2023/01/23 03:45:28;;;;;;;14.65;4.25;;;;;;;;;;5012650;28;20030;-31
2023/01/23 03:47:55;;;;;;;11.90;4.05;;;;;;;;;;5012640;28;20021;-31
2023/01/23 03:50:22;;;;;;;14.00;4.10;;;;;;;;;;5012719;28;20079;-31
2023/01/23 03:52:49;;;;;;;13.43;3.47;;;;;;;;;;5012698;28;20025;-31
2023/01/23 03:55:16;;;;;;;10.15;3.90;;;;;;;;;;5012718;28;20030;-31
2023/01/23 03:57:43;;;;;;;10.48;3.40;;;;;;;;;;5012611;28;20480;-31
2023/01/23 04:00:12;;;;;;;11.90;4.00;;;;;;;;;;5012913;28;20380;-31
2023/01/23 04:02:39;;;;;;;15.82;4.28;;;;;;;;;;5014116;28;20038;-31
2023/01/23 04:05:06;;;;;;;12.82;3.85;;;;;;;;;;5016349;28;20050;-31
2023/01/23 04:07:33;;;;;;;10.43;3.70;;;;;;;;;;5016363;28;20480;-31
2023/01/23 04:10:00;;;;;;;10.40;3.80;;;;;;;;;;5016388;28;20392;-31
2023/01/23 04:12:27;;;;;;;12.13;3.33;;;;;;;;;;5016344;28;20488;-31
2023/01/23 04:14:54;;;;;;;9.90;3.58;;;;;;;;;;5016230;28;20072;-31
2023/01/23 04:17:21;;;;;;;14.80;3.60;;;;;;;;;;5016195;28;20408;-31
2023/01/23 04:19:48;;;;;;;13.75;3.90;;;;;;;;;;5016075;28;20048;-31
2023/01/23 04:22:15;;;;;;;13.50;3.85;;;;;;;;;;5016159;28;20476;-31
2023/01/23 04:24:42;;;;;;;13.25;3.78;;;;;;;;;;5016097;28;20077;-31
2023/01/23 04:27:09;;;;;;;10.82;3.97;;;;;;;;;;5015978;28;20481;-31
2023/01/23 04:29:36;;;;;;;9.25;3.83;;;;;;;;;;5015906;28;20019;-31
2023/01/23 04:32:03;;;;;;;12.73;3.75;;;;;;;;;;5015980;28;20022;-31
2023/01/23 04:34:30;;;;;;;11.55;3.40;;;;;;;;;;5015639;28;20049;-32
2023/01/23 04:36:57;;;;;;;12.02;3.67;;;;;;;;;;5015925;28;20034;-31
2023/01/23 04:39:24;;;;;;;11.57;4.15;;;;;;;;;;5015750;28;20117;-31
2023/01/23 04:41:51;;;;;;;11.20;3.85;;;;;;;;;;5015700;28;20049;-31
2023/01/23 04:44:21;;;;;;;10.70;3.50;;;;;;;;;;5015741;28;20056;-31
2023/01/23 04:46:54;;;;;;;13.30;3.50;;;;;;;;;;5015603;28;20496;-31
2023/01/23 04:49:22;;;;;;;13.35;3.72;;;;;;;;;;5015597;28;20121;-31
2023/01/23 04:51:49;;;;;;;15.57;4.20;;;;;;;;;;5015553;28;20056;-31
2023/01/23 04:54:17;;;;;;;14.73;3.53;;;;;;;;;;5015667;28;20073;-31
2023/01/23 04:56:44;;;;;;;12.88;3.83;;;;;;;;;;5015504;28;20083;-31
2023/01/23 04:59:12;;;;;;;11.23;3.80;;;;;;;;;;5015388;28;20025;-31
2023/01/23 05:01:39;;;;;;;12.13;3.45;;;;;;;;;;5015248;28;20045;-31
2023/01/23 05:04:06;;;;;;;15.45;3.97;;;;;;;;;;5015378;28;20104;-31
2023/01/23 05:06:33;;;;;;;18.10;4.28;;;;;;;;;;5015254;28;20030;-31
2023/01/23 05:09:00;;;;;;;7.88;3.33;;;;;;;;;;5015236;28;20041;-31
2023/01/23 05:11:27;;;;;;;7.80;3.40;;;;;;;;;;5015273;28;20112;-31
2023/01/23 05:13:54;;;;;;;10.50;3.40;;;;;;;;;;5013891;28;20025;-31
2023/01/23 05:16:21;;;;;;;10.52;3.47;;;;;;;;;;5015177;28;20072;-31
2023/01/23 05:18:47;;;;;;;7.10;3.28;;;;;;;;;;5015011;28;20543;-31
2023/01/23 05:21:14;;;;;;;13.27;3.97;;;;;;;;;;5015020;28;20025;-31
2023/01/23 05:23:41;;;;;;;9.63;3.60;;;;;;;;;;5015024;28;20025;-31
2023/01/23 05:26:08;;;;;;;8.77;3.45;;;;;;;;;;5014834;28;20061;-31
2023/01/23 05:28:35;;;;;;;9.88;3.53;;;;;;;;;;5014773;28;20052;-31
2023/01/23 05:31:02;;;;;;;11.13;3.67;;;;;;;;;;5014780;28;20018;-31
2023/01/23 05:33:29;;;;;;;10.05;3.35;;;;;;;;;;5014516;28;20412;-31
2023/01/23 05:35:59;;;;;;;9.13;3.55;;;;;;;;;;5014749;28;20049;-31
2023/01/23 05:38:26;;;;;;;9.90;3.50;;;;;;;;;;5014560;28;20022;-31
2023/01/23 05:40:53;;;;;;;10.43;3.80;;;;;;;;;;5014680;28;20476;-31
2023/01/23 05:43:20;;;;;;;9.10;3.28;;;;;;;;;;5014640;28;20026;-31
2023/01/23 05:45:47;;;;;;;12.00;4.05;;;;;;;;;;5014727;28;20396;-31
2023/01/23 05:48:14;;;;;;;11.35;4.03;;;;;;;;;;5014431;28;20028;-31
2023/01/23 05:50:41;;;;;;;12.38;3.72;;;;;;;;;;5014449;28;20044;-31
2023/01/23 05:53:08;;;;;;;9.40;3.67;;;;;;;;;;5014481;28;20037;-31
2023/01/23 05:55:37;;;;;;;10.52;3.72;;;;;;;;;;5014426;28;20033;-31
2023/01/23 05:58:04;;;;;;;11.40;4.18;;;;;;;;;;5014272;28;20034;-31
2023/01/23 06:00:31;;;;;;;11.10;4.07;;;;;;;;;;5014189;28;20018;-29
2023/01/23 06:02:58;;;;;;;10.82;3.83;;;;;;;;;;5000428;28;20405;-32
2023/01/23 06:05:25;;;;;;;12.18;4.45;;;;;;;;;;4994510;28;20026;-31
2023/01/23 06:07:53;;;;;;;11.63;4.53;;;;;;;;;;4994482;28;20022;-31
2023/01/23 06:10:20;;;;;;;15.30;4.05;;;;;;;;;;4994508;28;20041;-31
2023/01/23 06:12:47;;;;;;;12.35;3.80;;;;;;;;;;4994481;28;20041;-32
2023/01/23 06:15:13;;;;;;;14.80;3.80;;;;;;;;;;4994402;28;20073;-31
2023/01/23 06:17:40;;;;;;;10.88;4.10;;;;;;;;;;4994253;28;20022;-32
2023/01/23 06:20:08;;;;;;;10.52;4.10;;;;;;;;;;4994377;28;20019;-31
2023/01/23 06:22:35;;;;;;;9.65;4.28;;;;;;;;;;4994308;28;20544;-31
2023/01/23 06:25:02;;;;;;;13.38;4.10;;;;;;;;;;4993819;28;20481;-31
2023/01/23 06:27:29;;;;;;;10.88;3.97;;;;;;;;;;4994254;28;20038;-31
2023/01/23 06:29:56;;;;;;;11.25;4.32;;;;;;;;;;4994082;28;20034;-31
2023/01/23 06:32:22;;;;;;;11.88;3.72;;;;;;;;;;4994180;28;20034;-31
2023/01/23 06:34:49;;;;;;;9.00;4.18;;;;;;;;;;4993922;28;20038;-31
2023/01/23 06:37:16;;;;;;;9.13;3.53;;;;;;;;;;4993946;28;20084;-31
2023/01/23 06:39:43;;;;;;;12.68;4.13;;;;;;;;;;4993877;28;20053;-31
2023/01/23 06:42:10;;;;;;;8.38;3.80;;;;;;;;;;4993827;28;20035;-31
2023/01/23 06:44:37;;;;;;;9.15;3.40;;;;;;;;;;4993949;28;20029;-31
2023/01/23 06:47:05;;;;;;;11.02;3.83;;;;;;;;;;4993828;28;20034;-31
2023/01/23 06:49:32;;;;;;;10.98;4.10;;;;;;;;;;4993927;28;20030;-31
2023/01/23 06:51:59;;;;;;;8.32;3.45;;;;;;;;;;4994055;28;20033;-31
2023/01/23 06:54:26;;;;;;;9.18;3.28;;;;;;;;;;4993749;28;20037;-31
2023/01/23 06:56:53;;;;;;;6.43;3.45;;;;;;;;;;4993743;28;20050;-31
2023/01/23 06:59:20;;;;;;;8.38;3.70;;;;;;;;;;5158679;23;20469;-36
2023/01/23 07:01:47;;;;;;;10.70;3.60;;;;;;;;;;5051270;28;20029;-34
2023/01/23 07:04:14;;;;;;;9.20;3.70;;;;;;;;;;5052890;28;20521;-34
2023/01/23 07:06:41;;;;;;;9.73;3.40;;;;;;;;;;5052737;28;20082;-35
2023/01/23 07:09:07;;;;;;;9.35;3.78;;;;;;;;;;5052668;28;20028;-34
2023/01/23 07:11:36;;;;;;;8.85;3.28;;;;;;;;;;5052665;28;20021;-34
2023/01/23 07:14:04;;;;;;;8.52;3.78;;;;;;;;;;5052728;28;20541;-36
2023/01/23 07:16:31;;;;;;;10.82;4.03;;;;;;;;;;5052651;28;20029;-34
2023/01/23 07:18:58;;;;;;;9.05;3.47;;;;;;;;;;5052397;28;20021;-34
2023/01/23 07:21:25;;;;;;;8.40;3.45;;;;;;;;;;5052628;28;20028;-34
2023/01/23 07:23:52;;;;;;;9.75;3.75;;;;;;;;;;5052492;28;20083;-34
2023/01/23 07:26:19;;;;;;;8.15;3.63;;;;;;;;;;5052481;28;20068;-34
2023/01/23 07:28:46;;;;;;;9.15;3.97;;;;;;;;;;5052487;28;20021;-34
2023/01/23 07:31:13;;;;;;;10.00;3.67;;;;;;;;;;5052507;28;20033;-34
2023/01/23 07:33:40;;;;;;;9.07;3.65;;;;;;;;;;5052385;28;20025;-34
2023/01/23 07:36:08;;;;;;;8.23;3.58;;;;;;;;;;5052497;28;20029;-34
2023/01/23 07:38:35;;;;;;;8.93;3.58;;;;;;;;;;5055713;28;20553;-34
2023/01/23 07:41:02;;;;;;;9.90;3.50;;;;;;;;;;5056591;28;20029;-34
2023/01/23 07:43:29;;;;;;;7.15;3.33;;;;;;;;;;5056822;28;20017;-34
2023/01/23 07:45:58;;;;;;;8.93;3.83;;;;;;;;;;5056431;28;20040;-34
2023/01/23 07:48:25;;;;;;;8.50;3.90;;;;;;;;;;5056311;28;20461;-35
2023/01/23 07:50:52;;;;;;;10.05;4.07;;;;;;;;;;5056380;28;20461;-34
2023/01/23 07:53:19;;;;;;;9.63;3.70;;;;;;;;;;5056347;28;20044;-34
2023/01/23 07:55:46;;;;;;;7.60;3.38;;;;;;;;;;5056368;28;20117;-34
2023/01/23 07:58:13;;;;;;;8.88;3.38;;;;;;;;;;5056363;28;20475;-36
2023/01/23 08:00:41;;;;;;;9.23;3.45;;;;;;;;;;5056081;28;20083;-34
2023/01/23 08:03:07;;;;;;;7.10;2.92;;;;;;;;;;5056022;28;20440;-34
2023/01/23 08:05:34;;;;;;;8.05;3.17;;;;;;;;;;5056020;28;20376;-34
2023/01/23 08:08:01;;;;;;;8.25;3.80;;;;;;;;;;5056132;28;20044;-34
2023/01/23 08:10:28;;;;;;;8.40;3.00;;;;;;;;;;5056137;28;20387;-34
2023/01/23 08:12:55;;;;;;;8.15;3.10;;;;;;;;;;5056321;28;20028;-34
2023/01/23 08:15:22;;;;;;;9.90;3.45;;;;;;;;;;5055887;28;20076;-34
2023/01/23 08:17:49;;;;;;;8.23;3.40;;;;;;;;;;5055792;28;20021;-34
2023/01/23 08:20:16;;;;;;;8.43;3.33;;;;;;;;;;5055788;28;20025;-34
2023/01/23 08:22:43;;;;;;;7.30;3.20;;;;;;;;;;5055754;28;20238;-34
2023/01/23 08:25:10;;;;;;;7.40;3.03;;;;;;;;;;5055724;28;20025;-34
2023/01/23 08:27:37;;;;;;;6.45;3.10;;;;;;;;;;5055764;28;20021;-34
2023/01/23 08:30:05;;;;;;;6.30;3.03;;;;;;;;;;5055552;28;20025;-34
2023/01/23 08:32:34;;;;;;;8.00;3.10;;;;;;;;;;5055666;28;20487;-34
2023/01/23 08:35:03;;;;;;;8.98;2.95;;;;;;;;;;5055514;28;20052;-34
2023/01/23 08:37:32;;;;;;;7.60;3.20;;;;;;;;;;5055537;28;20029;-34
2023/01/23 08:39:58;;;;;;;8.35;3.65;;;;;;;;;;5055374;28;20087;-34
2023/01/23 08:42:26;;;;;;;8.10;3.10;;;;;;;;;;5055464;28;20028;-34
2023/01/23 08:44:53;;;;;;;6.00;3.00;;;;;;;;;;5055470;28;20021;-35
2023/01/23 08:47:19;;;;;;;6.40;3.03;;;;;;;;;;5055295;28;20025;-34
2023/01/23 08:49:46;;;;;;;4.93;2.83;;;;;;;;;;5054993;28;20060;-34
2023/01/23 08:52:13;;;;;;;7.03;2.92;;;;;;;;;;5055326;28;20025;-34
2023/01/23 08:54:40;;;;;;;5.85;2.92;;;;;;;;;;5055257;28;20029;-34
2023/01/23 08:57:07;;;;;;;6.60;3.15;;;;;;;;;;5055277;28;20052;-34
2023/01/23 08:59:34;;;;;;;4.72;2.50;;;;;;;;;;5054901;28;20071;-34
2023/01/23 09:02:01;;;;;;;7.63;2.75;;;;;;;;;;5055034;28;20032;-34
2023/01/23 09:04:28;;;;;;;5.45;2.50;;;;;;;;;;5055123;28;20036;-34
2023/01/23 09:06:55;;;;;;;4.90;2.28;;;;;;;;;;5054849;28;20041;-34
2023/01/23 09:09:22;;;;;;;6.60;3.03;;;;;;;;;;5055084;28;20057;-34
2023/01/23 09:11:49;;;;;;;6.32;2.70;;;;;;;;;;5054850;28;20390;-34
2023/01/23 09:14:16;;;;;;;4.82;2.30;;;;;;;;;;5054881;28;20032;-34
2023/01/23 09:16:43;;;;;;;6.82;2.58;;;;;;;;;;5054796;28;20036;-34
2023/01/23 09:19:11;;;;;;;5.43;2.50;;;;;;;;;;5054669;28;20070;-35
2023/01/23 09:21:38;;;;;;;6.80;2.72;;;;;;;;;;5054689;28;20518;-34
2023/01/23 09:24:06;;;;;;;4.80;2.33;;;;;;;;;;5054627;28;20027;-34
2023/01/23 09:26:33;;;;;;;8.10;2.53;;;;;;;;;;5054460;28;20040;-34
2023/01/23 09:29:00;;;;;;;9.00;2.60;;;;;;;;;;5054527;28;20090;-34
2023/01/23 09:31:27;;;;;;;5.10;2.38;;;;;;;;;;5054475;28;20029;-34
2023/01/23 09:33:54;;;;;;;5.20;2.15;;;;;;;;;;5054426;28;20035;-34
2023/01/23 09:36:21;;;;;;;4.40;2.10;;;;;;;;;;5054482;28;20036;-34
2023/01/23 09:38:49;;;;;;;7.60;2.30;;;;;;;;;;5054362;28;20439;-34
2023/01/23 09:41:26;;;;;;;4.43;2.45;;;;;;;;;;5054358;28;20502;-34
2023/01/23 09:43:58;;;;;;;5.80;2.35;;;;;;;;;;5054250;28;20044;-34
2023/01/23 09:46:30;;;;;;;4.75;2.30;;;;;;;;;;5054212;28;20040;-34
2023/01/23 09:49:17;;;;;;;4.90;2.25;;;;;;;;;;5054206;28;20071;-34
2023/01/23 09:51:47;;;;;;;5.60;2.22;;;;;;;;;;4987090;28;20041;-34
2023/01/23 09:54:14;;;;;;;3.63;1.98;;;;;;;;;;5054008;28;20037;-34
2023/01/23 09:56:43;;;;;;;3.67;1.90;;;;;;;;;;5053930;28;20045;-34
2023/01/23 09:59:10;;;;;;;7.13;2.17;;;;;;;;;;5053664;28;20098;-34
2023/01/23 10:01:37;;;;;;;5.28;2.30;;;;;;;;;;5053398;28;20025;-34
2023/01/23 10:04:05;;;;;;;5.93;2.30;;;;;;;;;;5053897;28;20475;-34
2023/01/23 10:06:33;;;;;;;6.28;2.28;;;;;;;;;;5053749;28;20086;-34
2023/01/23 10:09:07;;;;;;;3.25;2.00;;;;;;;;;;5053737;28;20028;-35
2023/01/23 10:11:49;;;;;;;3.50;2.00;;;;;;;;;;5053824;28;20035;-34
2023/01/23 10:14:16;;;;;;;5.18;1.90;;;;;;;;;;5053643;28;20029;-34
2023/01/23 10:16:43;;;;;;;5.43;2.03;;;;;;;;;;5053557;28;20429;-34
2023/01/23 10:19:09;;;;;;;3.42;1.90;;;;;;;;;;5053741;28;20044;-35
2023/01/23 10:21:39;;;;;;;5.15;2.03;;;;;;;;;;5053580;28;20028;-34
2023/01/23 10:24:20;;;;;;;7.00;2.22;;;;;;;;;;5053536;28;20552;-34
2023/01/23 10:26:48;;;;;;;3.85;1.70;;;;;;;;;;5053437;28;20040;-34
2023/01/23 10:29:30;;;;;;;6.57;2.05;;;;;;;;;;5053388;28;20487;-34
2023/01/23 10:32:00;;;;;;;3.78;1.70;;;;;;;;;;5053347;28;20402;-34
2023/01/23 10:34:33;;;;;;;3.95;1.85;;;;;;;;;;5053166;28;20035;-35
2023/01/23 10:37:05;;;;;;;5.47;2.08;;;;;;;;;;5053208;28;20079;-34
2023/01/23 10:39:32;;;;;;;;;;;;;;;;;;5053570;28;20493;-33
2023/01/23 10:41:59;;;;;;;5.28;1.83;;;;;;;;;;5053218;28;20271;-34
2023/01/23 10:44:26;;;;;;;6.88;1.90;;;;;;;;;;5053207;28;20486;-34
2023/01/23 10:46:54;;;;;;;3.40;1.70;;;;;;;;;;5053219;28;20032;-34
2023/01/23 10:49:28;;;;;;;6.28;1.58;;;;;;;;;;5053040;28;20028;-34
2023/01/23 10:51:55;;;;;;;6.07;1.80;;;;;;;;;;5053155;28;20028;-34
2023/01/23 10:54:24;;;;;;;5.35;1.92;;;;;;;;;;5053076;28;20032;-35
2023/01/23 10:56:51;;;;;;;3.90;1.73;;;;;;;;;;5052922;28;20044;-35
2023/01/23 10:59:21;;;;;;;4.60;1.80;;;;;;;;;;5052627;28;20445;-34
2023/01/23 11:01:56;;;;;;;5.22;1.80;;;;;;;;;;5052866;28;20052;-36
2023/01/23 11:04:25;;;;;;;2.92;1.52;;;;;;;;;;5052960;28;20494;-34
2023/01/23 11:07:07;;;;;;;4.32;1.50;;;;;;;;;;5052762;28;20083;-34
2023/01/23 11:09:45;;;;;;;5.30;1.83;;;;;;;;;;5052615;28;20391;-34
2023/01/23 11:12:16;;;;;;;6.57;1.42;;;;;;;;;;5052763;28;20021;-34
2023/01/23 11:14:43;;;;;;;5.07;1.40;;;;;;;;;;5052710;28;20033;-35
2023/01/23 11:17:15;;;;;;;7.00;1.52;;;;;;;;;;5052707;28;20036;-34
2023/01/23 11:19:42;;;;;;;6.70;1.50;;;;;;;;;;5052582;28;20029;-35
2023/01/23 11:22:32;;;;;;;5.70;1.70;;;;;;;;;;5052687;28;20032;-35
2023/01/23 11:25:00;;;;;;;4.30;1.23;;;;;;;;;;5040228;28;20132;-35
2023/01/23 11:27:29;;;;;;;4.82;1.50;;;;;;;;;;5052382;28;20037;-34
2023/01/23 11:30:08;;;;;;;6.65;1.60;;;;;;;;;;5052370;28;20120;-34
2023/01/23 11:32:41;;;;;;;5.68;1.58;;;;;;;;;;5052537;28;20044;-34
2023/01/23 11:35:14;;;;;;;4.93;1.48;;;;;;;;;;5052504;28;20032;-35
2023/01/23 11:37:42;;;;;;;8.27;1.63;;;;;;;;;;5052407;28;20100;-35
2023/01/23 11:40:14;;;;;;;5.25;1.63;;;;;;;;;;5052362;28;20025;-35
2023/01/23 11:42:42;;;;;;;6.53;1.48;;;;;;;;;;5052333;28;20037;-35
2023/01/23 11:45:31;;;;;;;6.05;1.50;;;;;;;;;;5052397;28;20079;-34
2023/01/23 11:47:58;;;;;;;10.05;1.35;;;;;;;;;;5052286;28;20045;-35
2023/01/23 11:50:43;;;;;;;6.10;1.40;;;;;;;;;;5052350;28;20025;-35
2023/01/23 11:53:16;;;;;;;7.45;1.50;;;;;;;;;;5052349;28;20033;-35
2023/01/23 11:56:01;;;;;;;5.28;1.30;;;;;;;;;;5052433;28;20383;-34
2023/01/23 11:58:49;;;;;;;9.98;1.55;;;;;;;;;;5052279;28;20418;-35
2023/01/23 12:01:34;;;;;;;3.80;1.30;;;;;;;;;;5052275;28;20151;-35
2023/01/23 12:04:10;;;;;;;4.53;1.45;;;;;;;;;;5052247;28;20655;-34
2023/01/23 12:06:41;;;;;;;5.95;1.50;;;;;;;;;;5052164;28;20582;-35
2023/01/23 12:09:15;;;;;;;5.32;1.35;;;;;;;;;;5052153;28;20021;-35
2023/01/23 12:11:42;;;;;;;5.13;1.60;;;;;;;;;;5052071;28;20064;-35
2023/01/23 12:14:12;;;;;;;5.95;1.20;;;;;;;;;;5052091;28;20436;-35
2023/01/23 12:17:02;;;;;;;5.88;1.45;;;;;;;;;;5052036;28;20103;-34
2023/01/23 12:19:48;;;;;;;7.15;1.35;;;;;;;;;;5006748;28;20033;-35
2023/01/23 12:22:17;;;;;;;3.25;1.02;;;;;;;;;;5052057;28;20025;-34
2023/01/23 12:24:51;;;;;;;5.57;1.05;;;;;;;;;;5055185;28;20513;-35
2023/01/23 12:27:25;;;;;;;7.50;1.67;;;;;;;;;;5055754;28;20463;-35
2023/01/23 12:29:52;;;;;;;5.57;1.30;;;;;;;;;;5055503;28;20075;-35
2023/01/23 12:32:22;;;;;;;5.32;1.27;;;;;;;;;;5055699;28;20025;-35
2023/01/23 12:35:04;;;;;;;5.28;1.40;;;;;;;;;;5055614;28;20390;-35
2023/01/23 12:37:46;;;;;;;5.53;1.27;;;;;;;;;;5055894;28;20497;-34
2023/01/23 12:40:33;;;;;;;3.72;1.10;;;;;;;;;;5055613;28;20494;-35
2023/01/23 12:43:00;;;;;;;4.32;1.02;;;;;;;;;;5005604;28;20045;-35
2023/01/23 12:45:28;;;;;;;6.15;1.52;;;;;;;;;;5055387;28;20033;-35
2023/01/23 12:48:00;;;;;;;4.43;1.17;;;;;;;;;;5055308;28;20021;-35
2023/01/23 12:50:35;;;;;;;5.30;1.00;;;;;;;;;;5055289;28;20032;-35
2023/01/23 12:53:09;;;;;;;7.85;1.60;;;;;;;;;;5055202;28;20044;-34
2023/01/23 12:55:38;;;;;;;5.82;1.30;;;;;;;;;;5055291;28;20033;-35
2023/01/23 12:58:05;;;;;;;7.13;1.23;;;;;;;;;;5055117;28;20023;-35
2023/01/23 13:00:32;;;;;;;9.25;1.30;;;;;;;;;;5054984;28;20450;-35
2023/01/23 13:02:59;;;;;;;7.72;1.40;;;;;;;;;;5055150;28;20098;-35
2023/01/23 13:05:33;;;;;;;6.93;1.27;;;;;;;;;;5054958;28;20032;-35
2023/01/23 13:08:03;;;;;;;4.35;1.30;;;;;;;;;;5054990;28;20100;-35
2023/01/23 13:13:19;;;;;;;4.28;1.40;;;;;;;;;;5055244;28;20063;-35
2023/01/23 13:16:01;;;;;;;8.70;1.30;;;;;;;;;;5054868;28;20059;-35
2023/01/23 13:18:28;;;;;;;5.95;1.10;;;;;;;;;;5054724;28;20056;-35
2023/01/23 13:23:44;;;;;;;7.68;1.15;;;;;;;;;;5054924;28;20040;-35
2023/01/23 13:26:23;;;;;;;5.55;1.33;;;;;;;;;;5054571;28;20060;-35
2023/01/23 13:28:55;;;;;;;6.97;1.08;;;;;;;;;;5054420;28;20036;-34
2023/01/23 13:31:27;;;;;;;4.60;1.25;;;;;;;;;;5054617;28;20075;-35
2023/01/23 13:33:55;;;;;;;10.90;1.30;;;;;;;;;;5054406;28;20087;-35
2023/01/23 13:36:29;;;;;;;5.00;1.38;;;;;;;;;;5053490;28;20108;-35
2023/01/23 13:39:20;;;;;;;11.88;1.70;;;;;;;;;;5054339;28;20540;-35
2023/01/23 13:41:51;;;;;;;10.07;1.40;;;;;;;;;;5054371;28;20031;-35
2023/01/23 13:44:28;;;;;;;4.70;1.20;;;;;;;;;;5054207;28;20487;-35
2023/01/23 13:47:01;;;;;;;5.25;1.42;;;;;;;;;;5054205;28;20039;-35
2023/01/23 13:49:50;;;;;;;7.43;1.30;;;;;;;;;;5054066;28;20032;-35
2023/01/23 13:57:58;;;;;;;9.45;1.55;;;;;;;;;;5054284;28;20090;-35
2023/01/23 14:00:25;;;;;;;7.03;1.75;;;;;;;;;;5054061;28;20044;-35
2023/01/23 14:06:05;;;;;;;6.57;1.35;;;;;;;;;;5053942;28;20099;-35
2023/01/23 14:08:32;;;;;;;7.43;1.60;;;;;;;;;;5053940;28;20024;-35
2023/01/23 14:11:00;;;;;;;9.57;1.17;;;;;;;;;;5053780;28;20387;-35
2023/01/23 14:13:27;;;;;;;7.32;1.20;;;;;;;;;;5053766;28;20029;-35
2023/01/23 14:16:09;;;;;;;6.53;1.20;;;;;;;;;;5053625;28;20098;-34
2023/01/23 14:18:48;;;;;;;6.10;1.08;;;;;;;;;;5053635;28;20107;-35
2023/01/23 14:21:20;;;;;;;9.10;2.08;;;;;;;;;;5053649;28;20079;-34
2023/01/23 14:23:49;;;;;;;10.05;1.45;;;;;;;;;;5053482;28;20032;-34
2023/01/23 14:26:18;;;;;;;6.05;1.25;;;;;;;;;;5053493;28;20048;-34
2023/01/23 14:28:51;;;;;;;5.05;1.17;;;;;;;;;;5053403;28;20025;-34
2023/01/23 14:31:26;;;;;;;6.20;1.70;;;;;;;;;;5053474;28;20032;-34
2023/01/23 14:33:56;;;;;;;9.25;1.30;;;;;;;;;;5053288;28;20029;-34
2023/01/23 14:36:23;;;;;;;7.05;1.45;;;;;;;;;;5053310;28;20039;-34
2023/01/23 14:38:51;;;;;;;7.72;1.50;;;;;;;;;;5053171;28;20422;-34
2023/01/23 14:41:19;;;;;;;9.10;1.30;;;;;;;;;;5053252;28;20025;-34
2023/01/23 14:43:46;;;;;;;9.27;1.50;;;;;;;;;;5053241;28;20091;-36
2023/01/23 14:46:20;;;;;;;12.45;1.88;;;;;;;;;;5052753;28;20036;-34
2023/01/23 14:48:52;;;;;;;8.57;1.40;;;;;;;;;;5053106;28;20053;-35
2023/01/23 14:51:19;;;;;;;7.18;1.30;;;;;;;;;;5035127;28;20087;-35
2023/01/23 14:54:12;;;;;;;9.80;1.33;;;;;;;;;;5053052;28;20117;-34
2023/01/23 14:56:39;;;;;;;8.30;1.38;;;;;;;;;;5049024;28;20055;-34
2023/01/23 14:59:07;;;;;;;7.25;1.52;;;;;;;;;;5052716;28;20102;-34
2023/01/23 15:01:35;;;;;;;16.48;1.63;;;;;;;;;;5052868;28;20557;-34
2023/01/23 15:04:03;;;;;;;13.75;1.70;;;;;;;;;;5052917;28;20052;-34
2023/01/23 15:06:31;;;;;;;9.55;1.80;;;;;;;;;;5052696;28;20141;-34
2023/01/23 15:09:09;;;;;;;10.68;1.67;;;;;;;;;;5052793;28;20033;-35
2023/01/23 15:11:36;;;;;;;10.15;1.80;;;;;;;;;;5052722;28;20025;-34